Time,TemperatureF,DewpointF,PressureIn,WindDirection,WindDirectionDegrees,WindSpeedMPH,WindSpeedGustMPH,Humidity,HourlyPrecipIn,Conditions,Clouds,dailyrainin,SoftwareType,DateUTC
2013-11-07 00:01:00,55.2,47.5,29.68,North,2,0.0,2.7,75,0.00,,---,0.00,VWS V14.01,2013-11-07 08:01:00,
2013-11-07 00:06:00,55.2,47.5,29.68,NNW,346,2.7,2.7,75,0.00,,---,0.00,VWS V14.01,2013-11-07 08:06:00,
2013-11-07 00:11:00,55.2,47.5,29.68,NNW,335,0.0,2.2,75,0.00,,---,0.00,VWS V14.01,2013-11-07 08:11:00,
2013-11-07 00:16:00,55.0,47.3,29.68,NNW,336,0.0,0.0,75,0.00,,---,0.00,VWS V14.01,2013-11-07 08:16:00,
2013-11-07 00:21:00,55.0,47.3,29.68,NNW,336,0.0,0.0,75,0.00,,---,0.00,VWS V14.01,2013-11-07 08:21:00,
2013-11-07 00:26:00,55.0,47.3,29.68,NNW,336,0.0,0.0,75,0.00,,---,0.00,VWS V14.01,2013-11-07 08:26:00,
2013-11-07 00:31:00,54.7,46.9,29.68,NNW,336,0.0,0.0,75,0.00,,---,0.00,VWS V14.01,2013-11-07 08:31:00,
2013-11-07 00:36:00,54.7,46.9,29.68,NNW,336,0.0,0.0,75,0.00,,---,0.00,VWS V14.01,2013-11-07 08:36:00,
2013-11-07 00:41:00,54.7,46.9,29.68,NNW,336,0.0,0.0,75,0.00,,---,0.00,VWS V14.01,2013-11-07 08:41:00,
2013-11-07 00:46:00,55.0,47.3,29.68,NNW,336,0.0,0.0,75,0.00,,---,0.00,VWS V14.01,2013-11-07 08:46:00,
2013-11-07 00:51:00,55.0,47.3,29.68,NNW,336,0.0,0.0,75,0.00,,---,0.00,VWS V14.01,2013-11-07 08:51:00,
2013-11-07 00:56:00,55.6,47.8,29.68,NNW,336,0.0,0.0,75,0.00,,---,0.00,VWS V14.01,2013-11-07 08:56:00,
2013-11-07 01:01:00,55.6,47.8,29.68,NNW,336,0.0,0.0,75,0.00,,---,0.00,VWS V14.01,2013-11-07 09:01:00,
2013-11-07 01:06:00,55.6,47.8,29.68,NNW,336,0.0,0.0,75,0.00,,---,0.00,VWS V14.01,2013-11-07 09:06:00,
2013-11-07 01:11:00,55.2,47.5,29.68,NNW,336,0.0,0.0,75,0.00,,---,0.00,VWS V14.01,2013-11-07 09:11:00,
2013-11-07 01:16:00,55.2,47.5,29.68,NNW,336,0.0,0.0,75,0.00,,---,0.00,VWS V14.01,2013-11-07 09:16:00,
2013-11-07 01:21:00,55.2,47.5,29.68,NNW,336,0.0,0.0,75,0.00,,---,0.00,VWS V14.01,2013-11-07 09:21:00,
2013-11-07 01:26:00,55.2,47.5,29.68,NNW,335,0.0,0.0,75,0.00,,---,0.00,VWS V14.01,2013-11-07 09:26:00,
2013-11-07 01:31:00,55.2,47.5,29.68,West,280,0.0,0.0,75,0.00,,---,0.00,VWS V14.01,2013-11-07 09:31:00,
2013-11-07 01:36:00,55.0,47.3,29.68,SW,223,0.0,0.0,75,0.00,,---,0.00,VWS V14.01,2013-11-07 09:36:00,
2013-11-07 01:41:00,55.2,47.5,29.68,SW,223,0.0,0.0,75,0.00,,---,0.00,VWS V14.01,2013-11-07 09:41:00,
2013-11-07 01:46:00,55.9,47.8,29.68,SW,224,4.9,4.9,74,0.00,,---,0.00,VWS V14.01,2013-11-07 09:46:00,
2013-11-07 01:51:00,55.9,47.8,29.68,SW,229,4.9,4.9,74,0.00,,---,0.00,VWS V14.01,2013-11-07 09:51:00,
2013-11-07 01:56:00,55.9,47.8,29.68,SW,229,4.9,4.9,74,0.00,,---,0.00,VWS V14.01,2013-11-07 09:56:00,
2013-11-07 02:01:00,55.9,47.8,29.68,SW,232,4.0,4.0,74,0.00,,---,0.00,VWS V14.01,2013-11-07 10:01:00,
2013-11-07 02:06:00,56.3,48.1,29.68,West,275,6.3,6.3,74,0.00,,---,0.00,VWS V14.01,2013-11-07 10:06:00,
2013-11-07 02:11:00,56.8,48.7,29.68,WNW,284,6.3,6.3,74,0.00,,---,0.00,VWS V14.01,2013-11-07 10:11:00,
2013-11-07 02:16:00,56.8,48.7,29.65,West,272,5.4,5.4,74,0.00,,---,0.00,VWS V14.01,2013-11-07 10:16:00,
2013-11-07 02:21:00,56.8,48.7,29.65,West,272,5.4,5.4,74,0.00,,---,0.00,VWS V14.01,2013-11-07 10:21:00,
2013-11-07 02:26:00,56.8,48.7,29.65,SSW,212,10.1,10.1,74,0.00,,---,0.00,VWS V14.01,2013-11-07 10:26:00,
2013-11-07 02:31:00,57.0,49.2,29.65,SW,225,9.2,10.1,75,0.00,,---,0.00,VWS V14.01,2013-11-07 10:31:00,
2013-11-07 02:36:00,57.0,49.2,29.65,SW,232,7.6,7.6,75,0.00,,---,0.00,VWS V14.01,2013-11-07 10:36:00,
2013-11-07 02:41:00,57.2,49.0,29.62,SW,220,6.7,8.1,74,0.00,,---,0.00,VWS V14.01,2013-11-07 10:41:00,
2013-11-07 02:46:00,57.2,49.0,29.62,SW,224,8.1,8.1,74,0.00,,---,0.00,VWS V14.01,2013-11-07 10:46:00,
2013-11-07 02:51:00,57.2,49.0,29.62,WSW,239,11.9,11.9,74,0.00,,---,0.00,VWS V14.01,2013-11-07 10:51:00,
2013-11-07 02:56:00,57.4,43.6,29.62,WSW,239,11.9,11.9,60,0.00,,---,0.00,VWS V14.01,2013-11-07 10:56:00,
2013-11-07 03:01:00,57.4,43.6,29.62,SW,218,8.7,8.7,60,0.00,,---,0.00,VWS V14.01,2013-11-07 11:01:00,
2013-11-07 03:06:00,57.6,39.1,29.62,WSW,243,10.5,10.5,50,0.00,,---,0.00,VWS V14.01,2013-11-07 11:06:00,
2013-11-07 03:11:00,57.6,38.6,29.62,SW,229,11.0,11.0,49,0.00,,---,0.00,VWS V14.01,2013-11-07 11:11:00,
2013-11-07 03:16:00,57.6,38.6,29.62,WSW,254,10.1,10.1,49,0.00,,---,0.00,VWS V14.01,2013-11-07 11:16:00,
2013-11-07 03:21:00,57.6,39.1,29.62,WSW,243,8.3,8.3,50,0.00,,---,0.00,VWS V14.01,2013-11-07 11:21:00,
2013-11-07 03:26:00,57.6,39.1,29.62,WSW,243,8.3,8.3,50,0.00,,---,0.00,VWS V14.01,2013-11-07 11:26:00,
2013-11-07 03:31:00,57.4,41.8,29.62,WSW,246,8.3,8.3,56,0.00,,---,0.00,VWS V14.01,2013-11-07 11:31:00,
2013-11-07 03:34:00,57.4,41.8,29.62,WSW,256,7.6,8.1,56,0.00,,---,0.00,VWS V14.01,2013-11-07 11:34:00,
2013-11-07 03:39:00,57.6,40.1,29.62,WSW,256,11.0,11.0,52,0.00,,---,0.00,VWS V14.01,2013-11-07 11:39:00,
2013-11-07 03:44:00,57.6,40.1,29.62,SW,217,10.1,10.1,52,0.00,,---,0.00,VWS V14.01,2013-11-07 11:44:00,
2013-11-07 03:49:00,57.6,38.6,29.62,WSW,242,8.1,8.1,49,0.00,,---,0.00,VWS V14.01,2013-11-07 11:49:00,
2013-11-07 03:54:00,57.6,37.5,29.59,WSW,242,10.1,10.1,47,0.00,,---,0.00,VWS V14.01,2013-11-07 11:54:00,
2013-11-07 03:59:00,57.6,37.5,29.59,WSW,251,10.5,10.5,47,0.00,,---,0.00,VWS V14.01,2013-11-07 11:59:00,
2013-11-07 04:04:00,57.6,37.0,29.59,West,271,7.6,7.6,46,0.00,,---,0.00,VWS V14.01,2013-11-07 12:04:00,
2013-11-07 04:09:00,57.6,37.0,29.59,WSW,256,10.1,10.1,46,0.00,,---,0.00,VWS V14.01,2013-11-07 12:09:00,
2013-11-07 04:14:00,57.7,36.6,29.59,West,281,5.8,5.8,45,0.00,,---,0.00,VWS V14.01,2013-11-07 12:14:00,
2013-11-07 04:19:00,57.6,36.4,29.59,West,281,5.8,5.8,45,0.00,,---,0.00,VWS V14.01,2013-11-07 12:19:00,
2013-11-07 04:24:00,57.6,37.0,29.59,WNW,286,6.3,6.3,46,0.00,,---,0.00,VWS V14.01,2013-11-07 12:24:00,
2013-11-07 04:29:00,57.6,36.4,29.59,WSW,252,5.8,5.8,45,0.00,,---,0.00,VWS V14.01,2013-11-07 12:29:00,
2013-11-07 04:34:00,57.6,36.4,29.59,WSW,245,8.1,8.1,45,0.00,,---,0.00,VWS V14.01,2013-11-07 12:34:00,
2013-11-07 04:39:00,57.7,36.6,29.59,WSW,245,8.1,8.1,45,0.00,,---,0.00,VWS V14.01,2013-11-07 12:39:00,
2013-11-07 04:44:00,57.6,35.8,29.59,WNW,289,5.8,7.6,44,0.00,,---,0.00,VWS V14.01,2013-11-07 12:44:00,
2013-11-07 04:49:00,57.4,37.3,29.59,West,272,8.1,8.1,47,0.00,,---,0.00,VWS V14.01,2013-11-07 12:49:00,
2013-11-07 04:54:00,57.4,37.3,29.59,West,264,7.6,7.6,47,0.00,,---,0.00,VWS V14.01,2013-11-07 12:54:00,
2013-11-07 04:59:00,57.2,39.8,29.59,WNW,288,9.6,9.6,52,0.00,,---,0.00,VWS V14.01,2013-11-07 12:59:00,
2013-11-07 05:04:00,57.2,41.2,29.59,WNW,289,7.6,7.6,55,0.00,,---,0.00,VWS V14.01,2013-11-07 13:04:00,
2013-11-07 05:09:00,57.2,41.2,29.59,WNW,289,7.6,7.6,55,0.00,,---,0.00,VWS V14.01,2013-11-07 13:09:00,
2013-11-07 05:14:00,57.2,42.6,29.59,WNW,292,11.0,11.0,58,0.00,,---,0.00,VWS V14.01,2013-11-07 13:14:00,
2013-11-07 05:19:00,57.2,42.6,29.59,West,262,11.0,11.0,58,0.00,,---,0.00,VWS V14.01,2013-11-07 13:19:00,
2013-11-07 05:24:00,57.2,43.5,29.59,WSW,253,7.2,11.0,60,0.00,,---,0.00,VWS V14.01,2013-11-07 13:24:00,
2013-11-07 05:29:00,57.2,43.9,29.59,WSW,258,6.3,8.1,61,0.00,,---,0.00,VWS V14.01,2013-11-07 13:29:00,
2013-11-07 05:34:00,57.2,44.3,29.59,WSW,249,8.3,8.3,62,0.00,,---,0.00,VWS V14.01,2013-11-07 13:34:00,
2013-11-07 05:39:00,57.2,43.9,29.59,WSW,252,8.3,8.3,61,0.00,,---,0.00,VWS V14.01,2013-11-07 13:39:00,
2013-11-07 05:44:00,57.2,43.5,29.59,West,264,8.7,8.7,60,0.04,,---,0.04,VWS V14.01,2013-11-07 13:44:00,
2013-11-07 05:49:00,57.2,42.6,29.59,WSW,257,5.8,8.7,58,0.04,,---,0.04,VWS V14.01,2013-11-07 13:49:00,
2013-11-07 05:54:00,57.2,43.0,29.59,SW,227,8.7,8.7,59,0.04,,---,0.04,VWS V14.01,2013-11-07 13:54:00,
2013-11-07 05:59:00,57.2,43.0,29.59,SW,227,8.7,8.7,59,0.04,,---,0.04,VWS V14.01,2013-11-07 13:59:00,
2013-11-07 06:04:00,57.0,43.7,29.59,West,271,7.6,7.6,61,0.04,,---,0.04,VWS V14.01,2013-11-07 14:04:00,
2013-11-07 06:09:00,57.0,43.7,29.59,West,276,14.5,14.5,61,0.04,,---,0.04,VWS V14.01,2013-11-07 14:09:00,
2013-11-07 06:14:00,56.8,42.7,29.56,West,264,8.3,8.3,59,0.04,,---,0.04,VWS V14.01,2013-11-07 14:14:00,
2013-11-07 06:19:00,56.8,42.7,29.56,West,278,6.7,6.7,59,0.04,,---,0.04,VWS V14.01,2013-11-07 14:19:00,
2013-11-07 06:24:00,56.8,41.8,29.56,West,277,5.8,7.2,57,0.04,,---,0.04,VWS V14.01,2013-11-07 14:24:00,
2013-11-07 06:29:00,56.8,41.8,29.56,WNW,290,10.1,10.1,57,0.04,,---,0.04,VWS V14.01,2013-11-07 14:29:00,
2013-11-07 06:34:00,56.8,41.3,29.56,WSW,243,8.3,8.3,56,0.04,,---,0.04,VWS V14.01,2013-11-07 14:34:00,
2013-11-07 06:39:00,56.8,40.4,29.56,WNW,292,8.1,8.1,54,0.04,,---,0.04,VWS V14.01,2013-11-07 14:39:00,
2013-11-07 06:44:00,56.8,40.9,29.56,WNW,286,8.7,8.7,55,0.00,,---,0.04,VWS V14.01,2013-11-07 14:44:00,
2013-11-07 06:49:00,56.8,42.7,29.56,WNW,286,8.7,8.7,59,0.00,,---,0.04,VWS V14.01,2013-11-07 14:49:00,
2013-11-07 06:54:00,56.8,42.7,29.56,West,265,8.1,8.7,59,0.00,,---,0.04,VWS V14.01,2013-11-07 14:54:00,
2013-11-07 06:59:00,56.7,43.0,29.56,WSW,253,8.7,8.7,60,0.00,,---,0.04,VWS V14.01,2013-11-07 14:59:00,
2013-11-07 07:04:00,56.7,43.4,29.56,West,280,8.3,8.3,61,0.00,,---,0.04,VWS V14.01,2013-11-07 15:04:00,
2013-11-07 07:09:00,56.7,42.1,29.56,West,278,15.0,15.0,58,0.00,,---,0.04,VWS V14.01,2013-11-07 15:09:00,
2013-11-07 07:14:00,56.7,42.1,29.56,West,261,18.3,18.3,58,0.00,,---,0.04,VWS V14.01,2013-11-07 15:14:00,
2013-11-07 07:19:00,56.7,42.1,29.56,WSW,241,12.8,12.8,58,0.00,,---,0.04,VWS V14.01,2013-11-07 15:19:00,
2013-11-07 07:24:00,56.7,41.2,29.56,West,262,8.7,8.7,56,0.00,,---,0.04,VWS V14.01,2013-11-07 15:24:00,
2013-11-07 07:29:00,56.3,42.2,29.56,West,276,7.6,7.6,59,0.00,,---,0.04,VWS V14.01,2013-11-07 15:29:00,
2013-11-07 07:34:00,56.5,42.8,29.56,WSW,252,8.3,8.3,60,0.00,,---,0.04,VWS V14.01,2013-11-07 15:34:00,
2013-11-07 07:39:00,56.5,42.8,29.53,West,261,6.7,6.7,60,0.00,,---,0.04,VWS V14.01,2013-11-07 15:39:00,
2013-11-07 07:44:00,56.5,42.8,29.53,WSW,254,10.1,10.5,60,0.00,,---,0.04,VWS V14.01,2013-11-07 15:44:00,
2013-11-07 07:49:00,56.5,42.8,29.53,SSW,211,4.0,4.0,60,0.00,,---,0.04,VWS V14.01,2013-11-07 15:49:00,
2013-11-07 07:54:00,56.5,42.8,29.53,WNW,288,10.5,10.5,60,0.00,,---,0.04,VWS V14.01,2013-11-07 15:54:00,
2013-11-07 07:59:00,56.5,37.0,29.53,SW,232,12.8,12.8,48,0.00,,---,0.04,VWS V14.01,2013-11-07 15:59:00,
2013-11-07 08:04:00,56.5,37.0,29.53,SW,233,9.2,9.2,48,0.00,,---,0.04,VWS V14.01,2013-11-07 16:04:00,
2013-11-07 08:09:00,56.5,36.0,29.53,SW,233,9.2,9.2,46,0.00,,---,0.04,VWS V14.01,2013-11-07 16:09:00,
2013-11-07 08:14:00,56.7,36.1,29.53,West,272,10.5,11.9,46,0.00,,---,0.04,VWS V14.01,2013-11-07 16:14:00,
2013-11-07 08:19:00,57.0,35.3,29.53,WSW,257,8.1,8.1,44,0.00,,---,0.04,VWS V14.01,2013-11-07 16:19:00,
2013-11-07 08:24:00,57.2,34.3,29.53,WNW,285,10.1,12.3,42,0.00,,---,0.04,VWS V14.01,2013-11-07 16:24:00,
2013-11-07 08:29:00,57.2,34.9,29.53,West,259,11.0,11.0,43,0.00,,---,0.04,VWS V14.01,2013-11-07 16:29:00,
2013-11-07 08:34:00,57.2,34.9,29.53,West,267,8.7,8.7,43,0.00,,---,0.04,VWS V14.01,2013-11-07 16:34:00,
2013-11-07 08:39:00,56.8,35.7,29.53,West,273,10.1,10.1,45,0.00,,---,0.04,VWS V14.01,2013-11-07 16:39:00,
2013-11-07 08:44:00,56.8,35.7,29.53,WNW,289,8.3,10.1,45,0.00,,---,0.04,VWS V14.01,2013-11-07 16:44:00,
2013-11-07 08:49:00,56.7,37.7,29.53,WNW,298,10.1,10.1,49,0.00,,---,0.04,VWS V14.01,2013-11-07 16:49:00,
2013-11-07 08:54:00,56.7,38.2,29.53,North,353,27.5,27.5,50,0.04,,---,0.08,VWS V14.01,2013-11-07 16:54:00,
2013-11-07 08:59:00,51.8,27.6,29.53,North,8,25.1,25.1,39,0.12,,---,0.16,VWS V14.01,2013-11-07 16:59:00,
2013-11-07 09:04:00,49.8,28.8,29.53,NNW,332,8.3,13.2,44,0.20,,---,0.24,VWS V14.01,2013-11-07 17:04:00,
2013-11-07 09:09:00,49.5,30.1,29.53,NW,316,5.4,5.4,47,0.20,,---,0.24,VWS V14.01,2013-11-07 17:09:00,
2013-11-07 09:14:00,49.3,30.4,29.53,NNW,330,3.6,5.4,48,0.20,,---,0.24,VWS V14.01,2013-11-07 17:14:00,
2013-11-07 09:19:00,49.3,30.4,29.53,NW,310,0.0,0.0,48,0.20,,---,0.24,VWS V14.01,2013-11-07 17:19:00,
2013-11-07 09:24:00,49.3,30.4,29.53,NW,310,0.0,0.0,48,0.20,,---,0.24,VWS V14.01,2013-11-07 17:24:00,
2013-11-07 09:29:00,48.9,30.6,29.53,SW,226,3.6,3.6,49,0.20,,---,0.24,VWS V14.01,2013-11-07 17:29:00,
2013-11-07 09:34:00,48.6,32.7,29.53,SSW,193,3.1,3.1,54,0.20,,---,0.24,VWS V14.01,2013-11-07 17:34:00,
2013-11-07 09:39:00,48.6,32.7,29.53,SSW,202,5.8,5.8,54,0.24,,---,0.28,VWS V14.01,2013-11-07 17:39:00,
2013-11-07 09:44:00,48.6,33.6,29.53,South,191,5.4,5.4,56,0.24,,---,0.28,VWS V14.01,2013-11-07 17:44:00,
2013-11-07 09:49:00,48.6,34.0,29.53,SSW,203,6.3,6.3,57,0.24,,---,0.28,VWS V14.01,2013-11-07 17:49:00,
2013-11-07 09:54:00,48.6,34.0,29.53,SW,221,6.3,6.3,57,0.20,,---,0.28,VWS V14.01,2013-11-07 17:54:00,
2013-11-07 09:58:00,48.6,33.1,29.53,SW,218,6.7,6.7,55,0.12,,---,0.28,VWS V14.01,2013-11-07 17:58:00,
2013-11-07 10:03:00,48.6,32.2,29.53,SW,220,8.3,8.3,53,0.12,,---,0.28,VWS V14.01,2013-11-07 18:03:00,
2013-11-07 10:08:00,48.6,32.2,29.53,SSW,200,8.3,8.3,53,0.04,,---,0.28,VWS V14.01,2013-11-07 18:08:00,
2013-11-07 10:13:00,48.7,32.4,29.53,SW,215,6.7,6.7,53,0.08,,---,0.31,VWS V14.01,2013-11-07 18:13:00,
2013-11-07 10:18:00,48.7,32.4,29.53,SW,222,8.7,8.7,53,0.08,,---,0.31,VWS V14.01,2013-11-07 18:18:00,
2013-11-07 10:23:00,49.3,34.7,29.53,WSW,244,10.5,10.5,57,0.08,,---,0.31,VWS V14.01,2013-11-07 18:23:00,
2013-11-07 10:28:00,49.3,34.7,29.53,SW,224,7.6,12.8,57,0.08,,---,0.31,VWS V14.01,2013-11-07 18:28:00,
2013-11-07 10:33:00,49.6,35.9,29.53,SW,224,7.6,7.6,59,0.08,,---,0.31,VWS V14.01,2013-11-07 18:33:00,
2013-11-07 10:38:00,49.8,34.8,29.53,SW,223,11.0,11.0,56,0.04,,---,0.31,VWS V14.01,2013-11-07 18:38:00,
2013-11-07 10:43:00,49.8,34.8,29.53,SW,223,11.0,11.0,56,0.04,,---,0.31,VWS V14.01,2013-11-07 18:43:00,
2013-11-07 10:48:00,49.8,34.8,29.53,SW,230,8.1,8.1,56,0.04,,---,0.31,VWS V14.01,2013-11-07 18:48:00,
2013-11-07 10:53:00,50.2,35.1,29.53,SW,230,8.1,8.1,56,0.04,,---,0.31,VWS V14.01,2013-11-07 18:53:00,
2013-11-07 10:57:00,50.2,36.4,29.53,WNW,299,4.0,9.6,59,0.08,,---,0.35,VWS V14.01,2013-11-07 18:57:00,
2013-11-07 11:02:00,50.4,37.0,29.59,WNW,295,5.8,5.8,60,0.08,,---,0.35,VWS V14.01,2013-11-07 19:02:00,
2013-11-07 11:07:00,50.4,37.0,29.59,WSW,251,8.1,8.1,60,0.08,,---,0.35,VWS V14.01,2013-11-07 19:07:00,
2013-11-07 11:12:00,50.5,38.0,29.59,WNW,289,6.3,6.3,62,0.04,,---,0.35,VWS V14.01,2013-11-07 19:12:00,
2013-11-07 11:17:00,50.7,38.6,29.59,WNW,294,9.6,9.6,63,0.04,,---,0.35,VWS V14.01,2013-11-07 19:17:00,
2013-11-07 11:22:00,50.7,38.6,29.59,WNW,302,8.7,8.7,63,0.04,,---,0.35,VWS V14.01,2013-11-07 19:22:00,
2013-11-07 11:27:00,52.0,40.2,29.59,WNW,292,10.1,10.1,64,0.04,,---,0.35,VWS V14.01,2013-11-07 19:27:00,
2013-11-07 11:32:00,52.7,40.1,29.59,WNW,286,10.5,10.5,62,0.04,,---,0.35,VWS V14.01,2013-11-07 19:32:00,
2013-11-07 11:37:00,52.7,40.1,29.59,West,281,10.5,10.5,62,0.04,,---,0.35,VWS V14.01,2013-11-07 19:37:00,
2013-11-07 11:42:00,52.5,37.7,29.59,WNW,287,7.6,7.6,57,0.04,,---,0.35,VWS V14.01,2013-11-07 19:42:00,
2013-11-07 11:47:00,52.5,37.7,29.59,WNW,292,10.5,10.5,57,0.04,,---,0.35,VWS V14.01,2013-11-07 19:47:00,
2013-11-07 11:52:00,52.9,35.8,29.59,West,278,10.1,10.1,52,0.04,,---,0.35,VWS V14.01,2013-11-07 19:52:00,
2013-11-07 11:57:00,56.3,38.9,29.59,West,276,10.5,10.5,52,0.00,,---,0.35,VWS V14.01,2013-11-07 19:57:00,
2013-11-07 12:02:00,56.5,36.0,29.59,WSW,238,8.3,10.1,46,0.00,,---,0.35,VWS V14.01,2013-11-07 20:02:00,
2013-11-07 12:07:00,58.1,31.3,29.59,West,273,8.3,8.3,36,0.00,,---,0.35,VWS V14.01,2013-11-07 20:07:00,
2013-11-07 12:12:00,59.4,31.0,29.59,WNW,286,11.0,11.0,34,0.00,,---,0.35,VWS V14.01,2013-11-07 20:12:00,
2013-11-07 12:17:00,58.6,30.4,29.59,West,270,11.9,11.9,34,0.00,,---,0.35,VWS V14.01,2013-11-07 20:17:00,
2013-11-07 12:22:00,59.7,30.6,29.62,WNW,286,13.2,13.2,33,0.00,,---,0.35,VWS V14.01,2013-11-07 20:22:00,
2013-11-07 12:27:00,56.5,30.5,29.62,WSW,256,12.3,12.3,37,0.00,,---,0.35,VWS V14.01,2013-11-07 20:27:00,
2013-11-07 12:32:00,55.9,30.7,29.59,WSW,238,11.0,11.0,38,0.00,,---,0.35,VWS V14.01,2013-11-07 20:32:00,
2013-11-07 12:37:00,58.5,29.5,29.59,West,279,12.8,12.8,33,0.00,,---,0.35,VWS V14.01,2013-11-07 20:37:00,
2013-11-07 12:42:00,59.9,26.7,29.59,WSW,239,11.0,11.0,28,0.00,,---,0.35,VWS V14.01,2013-11-07 20:42:00,
2013-11-07 12:47:00,59.9,26.7,29.59,WNW,283,15.4,15.4,28,0.00,,---,0.35,VWS V14.01,2013-11-07 20:47:00,
2013-11-07 12:52:00,59.0,26.0,29.59,WNW,298,15.4,15.4,28,0.00,,---,0.35,VWS V14.01,2013-11-07 20:52:00,
2013-11-07 12:57:00,59.0,26.0,29.59,West,265,8.7,8.7,28,0.00,,---,0.35,VWS V14.01,2013-11-07 20:57:00,
2013-11-07 13:02:00,55.8,29.2,29.59,WNW,287,15.4,15.4,36,0.00,,---,0.35,VWS V14.01,2013-11-07 21:02:00,
2013-11-07 13:07:00,54.7,28.9,29.62,WNW,285,10.5,10.5,37,0.00,,---,0.35,VWS V14.01,2013-11-07 21:07:00,
2013-11-07 13:12:00,54.0,29.6,29.62,WNW,292,12.8,12.8,39,0.00,,---,0.35,VWS V14.01,2013-11-07 21:12:00,
2013-11-07 13:17:00,54.0,29.6,29.62,WNW,292,13.2,13.2,39,0.00,,---,0.35,VWS V14.01,2013-11-07 21:17:00,
2013-11-07 13:22:00,53.2,28.9,29.62,WNW,292,15.0,15.0,39,0.00,,---,0.35,VWS V14.01,2013-11-07 21:22:00,
2013-11-07 13:27:00,53.1,29.4,29.62,WNW,302,10.1,10.1,40,0.00,,---,0.35,VWS V14.01,2013-11-07 21:27:00,
2013-11-07 13:32:00,53.2,31.3,29.62,WNW,303,8.3,8.3,43,0.00,,---,0.35,VWS V14.01,2013-11-07 21:32:00,
2013-11-07 13:37:00,53.6,31.7,29.62,West,259,12.8,13.6,43,0.00,,---,0.35,VWS V14.01,2013-11-07 21:37:00,
2013-11-07 13:42:00,54.1,31.6,29.62,WNW,294,10.5,11.0,42,0.00,,---,0.35,VWS V14.01,2013-11-07 21:42:00,
2013-11-07 13:47:00,54.9,31.0,29.62,WNW,286,13.2,13.2,40,0.00,,---,0.35,VWS V14.01,2013-11-07 21:47:00,
2013-11-07 13:53:00,55.0,30.5,29.62,WNW,293,8.7,8.7,39,0.00,,---,0.35,VWS V14.01,2013-11-07 21:53:00,
2013-11-07 13:58:00,54.9,29.8,29.62,West,276,12.8,12.8,38,0.00,,---,0.35,VWS V14.01,2013-11-07 21:58:00,
2013-11-07 14:03:00,54.1,29.8,29.62,WNW,292,10.5,10.5,39,0.00,,---,0.35,VWS V14.01,2013-11-07 22:03:00,
2013-11-07 14:08:00,53.2,30.2,29.62,WNW,285,10.1,10.1,41,0.00,,---,0.35,VWS V14.01,2013-11-07 22:08:00,
2013-11-07 14:13:00,52.9,31.0,29.62,NW,319,8.7,9.6,43,0.00,,---,0.35,VWS V14.01,2013-11-07 22:13:00,
2013-11-07 14:18:00,52.5,31.8,29.62,NW,317,10.1,11.0,45,0.00,,---,0.35,VWS V14.01,2013-11-07 22:18:00,
2013-11-07 14:23:00,52.5,31.8,29.62,NW,316,12.8,12.8,45,0.00,,---,0.35,VWS V14.01,2013-11-07 22:23:00,
2013-11-07 14:28:00,51.4,29.1,29.62,WNW,296,10.5,12.8,42,0.00,,---,0.35,VWS V14.01,2013-11-07 22:28:00,
2013-11-07 14:33:00,51.1,29.4,29.62,WNW,288,7.6,7.6,43,0.00,,---,0.35,VWS V14.01,2013-11-07 22:33:00,
2013-11-07 14:37:00,51.3,29.5,29.62,NW,312,9.6,10.5,43,0.00,,---,0.35,VWS V14.01,2013-11-07 22:37:00,
2013-11-07 14:42:00,52.3,30.5,29.62,WNW,300,8.3,8.3,43,0.00,,---,0.35,VWS V14.01,2013-11-07 22:42:00,
2013-11-07 14:47:00,53.1,29.4,29.62,NW,305,10.1,10.1,40,0.00,,---,0.35,VWS V14.01,2013-11-07 22:47:00,
2013-11-07 14:53:00,52.3,28.1,29.62,WNW,301,8.7,10.1,39,0.00,,---,0.35,VWS V14.01,2013-11-07 22:53:00,
2013-11-07 14:58:00,53.2,28.3,29.62,WNW,302,8.7,8.7,38,0.00,,---,0.35,VWS V14.01,2013-11-07 22:58:00,
2013-11-07 15:03:00,53.2,28.3,29.62,WNW,294,11.0,11.0,38,0.00,,---,0.35,VWS V14.01,2013-11-07 23:03:00,
2013-11-07 15:08:00,55.2,23.5,29.62,WNW,290,15.4,15.4,29,0.00,,---,0.35,VWS V14.01,2013-11-07 23:08:00,
2013-11-07 15:13:00,55.4,22.0,29.65,WNW,302,17.4,17.4,27,0.00,,---,0.35,VWS V14.01,2013-11-07 23:13:00,
2013-11-07 15:18:00,54.5,22.1,29.65,WNW,297,10.1,10.1,28,0.00,,---,0.35,VWS V14.01,2013-11-07 23:18:00,
2013-11-07 15:23:00,53.6,22.1,29.65,West,279,14.1,14.1,29,0.00,,---,0.35,VWS V14.01,2013-11-07 23:23:00,
2013-11-07 15:28:00,53.6,22.1,29.65,NW,305,13.2,13.2,29,0.00,,---,0.35,VWS V14.01,2013-11-07 23:28:00,
2013-11-07 15:32:00,53.6,24.5,29.65,NW,305,8.7,14.5,32,0.00,,---,0.35,VWS V14.01,2013-11-07 23:32:00,
2013-11-07 15:37:00,53.6,24.5,29.65,NW,305,8.7,8.7,32,0.00,,---,0.35,VWS V14.01,2013-11-07 23:37:00,
2013-11-07 15:43:00,53.6,24.5,29.65,NW,313,11.0,11.0,32,0.00,,---,0.35,VWS V14.01,2013-11-07 23:43:00,
2013-11-07 15:48:00,53.6,25.2,29.65,WNW,294,10.5,10.5,33,0.00,,---,0.35,VWS V14.01,2013-11-07 23:48:00,
2013-11-07 15:53:00,53.4,25.1,29.65,WNW,294,8.1,8.1,33,0.00,,---,0.35,VWS V14.01,2013-11-07 23:53:00,
2013-11-07 15:58:00,53.4,25.8,29.65,WNW,303,8.7,8.7,34,0.00,,---,0.35,VWS V14.01,2013-11-07 23:58:00,
2013-11-07 16:03:00,53.4,25.8,29.65,NW,315,8.1,8.3,34,0.00,,---,0.00,VWS V14.01,2013-11-08 00:03:00,
2013-11-07 16:08:00,53.4,27.1,29.65,NW,315,8.1,8.1,36,0.00,,---,0.35,VWS V14.01,2013-11-08 00:08:00,
2013-11-07 16:13:00,53.4,27.1,29.65,WNW,302,8.7,12.8,36,0.00,,---,0.35,VWS V14.01,2013-11-08 00:13:00,
2013-11-07 16:18:00,53.4,27.1,29.65,WNW,299,8.7,8.7,36,0.00,,---,0.35,VWS V14.01,2013-11-08 00:18:00,
2013-11-07 16:23:00,53.4,27.1,29.65,NW,311,11.0,11.0,36,0.00,,---,0.35,VWS V14.01,2013-11-08 00:23:00,
2013-11-07 16:28:00,51.6,26.2,29.65,WNW,297,11.0,11.0,37,0.00,,---,0.35,VWS V14.01,2013-11-08 00:28:00,
2013-11-07 16:33:00,51.1,26.4,29.65,WNW,289,11.0,11.0,38,0.00,,---,0.35,VWS V14.01,2013-11-08 00:33:00,
2013-11-07 16:38:00,50.9,26.2,29.65,WNW,288,11.0,11.0,38,0.00,,---,0.35,VWS V14.01,2013-11-08 00:38:00,
2013-11-07 16:43:00,50.7,26.0,29.65,WNW,298,10.5,10.5,38,0.00,,---,0.35,VWS V14.01,2013-11-08 00:43:00,
2013-11-07 16:48:00,50.7,26.0,29.65,WNW,286,12.3,12.3,38,0.00,,---,0.35,VWS V14.01,2013-11-08 00:48:00,
2013-11-07 16:53:00,50.0,26.0,29.65,WSW,258,8.3,8.3,39,0.00,,---,0.35,VWS V14.01,2013-11-08 00:53:00,
2013-11-07 16:58:00,50.0,26.0,29.65,WNW,290,11.0,11.0,39,0.00,,---,0.35,VWS V14.01,2013-11-08 00:58:00,
2013-11-07 17:03:00,49.8,27.1,29.65,WNW,283,8.3,8.3,41,0.00,,---,0.35,VWS V14.01,2013-11-08 01:03:00,
2013-11-07 17:07:00,49.8,27.1,29.65,West,276,11.0,11.0,41,0.00,,---,0.35,VWS V14.01,2013-11-08 01:07:00,
2013-11-07 17:13:00,49.8,28.2,29.65,WNW,291,9.2,9.2,43,0.00,,---,0.35,VWS V14.01,2013-11-08 01:13:00,
2013-11-07 17:18:00,50.0,29.0,29.65,WNW,292,8.7,8.7,44,0.00,,---,0.35,VWS V14.01,2013-11-08 01:18:00,
2013-11-07 17:23:00,50.0,29.0,29.65,WSW,256,7.6,7.6,44,0.00,,---,0.35,VWS V14.01,2013-11-08 01:23:00,
2013-11-07 17:28:00,50.5,28.3,29.65,West,278,10.1,10.1,42,0.00,,---,0.35,VWS V14.01,2013-11-08 01:28:00,
2013-11-07 17:33:00,50.5,28.3,29.65,WSW,250,10.1,10.1,42,0.00,,---,0.35,VWS V14.01,2013-11-08 01:33:00,
2013-11-07 17:38:00,50.7,27.9,29.65,West,281,10.5,10.5,41,0.00,,---,0.35,VWS V14.01,2013-11-08 01:38:00,
2013-11-07 17:43:00,50.4,27.0,29.65,WNW,290,8.1,8.1,40,0.00,,---,0.35,VWS V14.01,2013-11-08 01:43:00,
2013-11-07 17:48:00,50.0,26.6,29.65,West,273,8.3,8.3,40,0.00,,---,0.35,VWS V14.01,2013-11-08 01:48:00,
2013-11-07 17:53:00,49.8,26.5,29.65,West,264,7.6,8.3,40,0.00,,---,0.35,VWS V14.01,2013-11-08 01:53:00,
2013-11-07 17:58:00,49.8,26.5,29.65,WNW,297,11.9,11.9,40,0.00,,---,0.35,VWS V14.01,2013-11-08 01:58:00,
2013-11-07 18:03:00,49.8,26.5,29.65,West,265,8.1,8.1,40,0.00,,---,0.35,VWS V14.01,2013-11-08 02:03:00,
2013-11-07 18:08:00,48.9,26.3,29.65,West,264,6.3,8.1,41,0.00,,---,0.35,VWS V14.01,2013-11-08 02:08:00,
2013-11-07 18:13:00,48.7,26.1,29.65,West,264,6.3,6.3,41,0.00,,---,0.35,VWS V14.01,2013-11-08 02:13:00,
2013-11-07 18:18:00,48.9,25.7,29.65,WNW,284,7.6,7.6,40,0.00,,---,0.35,VWS V14.01,2013-11-08 02:18:00,
2013-11-07 18:23:00,48.9,26.3,29.65,West,263,8.7,8.7,41,0.00,,---,0.35,VWS V14.01,2013-11-08 02:23:00,
2013-11-07 18:28:00,48.6,26.0,29.65,WSW,248,7.2,7.2,41,0.00,,---,0.35,VWS V14.01,2013-11-08 02:28:00,
2013-11-07 18:33:00,48.7,26.7,29.65,West,274,7.6,7.6,42,0.00,,---,0.35,VWS V14.01,2013-11-08 02:33:00,
2013-11-07 18:38:00,48.6,26.5,29.65,West,274,7.6,7.6,42,0.00,,---,0.35,VWS V14.01,2013-11-08 02:38:00,
2013-11-07 18:43:00,48.6,26.5,29.65,WSW,252,8.3,8.3,42,0.00,,---,0.35,VWS V14.01,2013-11-08 02:43:00,
2013-11-07 18:48:00,48.7,26.1,29.65,SW,233,8.7,9.2,41,0.00,,---,0.35,VWS V14.01,2013-11-08 02:48:00,
2013-11-07 18:53:00,48.7,26.1,29.65,WSW,246,7.6,7.6,41,0.00,,---,0.35,VWS V14.01,2013-11-08 02:53:00,
2013-11-07 18:58:00,48.7,26.1,29.65,West,260,5.8,5.8,41,0.00,,---,0.35,VWS V14.01,2013-11-08 02:58:00,
2013-11-07 19:03:00,48.7,25.5,29.65,West,263,5.4,5.4,40,0.00,,---,0.35,VWS V14.01,2013-11-08 03:03:00,
2013-11-07 19:08:00,48.6,26.0,29.65,West,263,5.4,5.4,41,0.00,,---,0.35,VWS V14.01,2013-11-08 03:08:00,
2013-11-07 19:13:00,48.7,26.7,29.65,SW,217,5.8,6.3,42,0.00,,---,0.35,VWS V14.01,2013-11-08 03:13:00,
2013-11-07 19:18:00,48.7,26.7,29.65,WSW,237,3.6,3.6,42,0.00,,---,0.35,VWS V14.01,2013-11-08 03:18:00,
2013-11-07 19:23:00,48.7,26.7,29.65,SW,224,8.1,8.1,42,0.00,,---,0.35,VWS V14.01,2013-11-08 03:23:00,
2013-11-07 19:28:00,49.5,26.2,29.65,WSW,238,8.1,8.1,40,0.00,,---,0.35,VWS V14.01,2013-11-08 03:28:00,
2013-11-07 19:33:00,49.5,26.2,29.65,SW,226,6.3,6.3,40,0.00,,---,0.35,VWS V14.01,2013-11-08 03:33:00,
2013-11-07 19:38:00,49.1,25.8,29.65,SW,226,6.3,6.3,40,0.00,,---,0.35,VWS V14.01,2013-11-08 03:38:00,
2013-11-07 19:43:00,49.1,25.8,29.65,West,280,5.4,5.4,40,0.00,,---,0.35,VWS V14.01,2013-11-08 03:43:00,
2013-11-07 19:48:00,49.1,25.8,29.65,WSW,240,5.8,5.8,40,0.00,,---,0.35,VWS V14.01,2013-11-08 03:48:00,
2013-11-07 19:53:00,48.9,25.7,29.65,WNW,286,8.3,8.3,40,0.00,,---,0.35,VWS V14.01,2013-11-08 03:53:00,
2013-11-07 19:58:00,48.9,26.3,29.65,West,280,5.8,5.8,41,0.00,,---,0.35,VWS V14.01,2013-11-08 03:58:00,
2013-11-07 20:03:00,49.1,25.8,29.65,West,280,5.8,5.8,40,0.00,,---,0.35,VWS V14.01,2013-11-08 04:03:00,
2013-11-07 20:08:00,49.1,25.8,29.65,WNW,291,6.3,6.3,40,0.00,,---,0.35,VWS V14.01,2013-11-08 04:08:00,
2013-11-07 20:13:00,49.1,25.8,29.65,WNW,291,6.3,6.3,40,0.00,,---,0.35,VWS V14.01,2013-11-08 04:13:00,
2013-11-07 20:18:00,49.1,25.8,29.65,WSW,246,5.8,5.8,40,0.00,,---,0.35,VWS V14.01,2013-11-08 04:18:00,
2013-11-07 20:23:00,49.6,25.7,29.65,WSW,254,6.3,6.3,39,0.00,,---,0.35,VWS V14.01,2013-11-08 04:23:00,
2013-11-07 20:28:00,49.5,26.2,29.65,West,264,4.0,4.0,40,0.00,,---,0.35,VWS V14.01,2013-11-08 04:28:00,
2013-11-07 20:33:00,49.5,26.2,29.65,WSW,250,5.4,5.4,40,0.00,,---,0.35,VWS V14.01,2013-11-08 04:33:00,
2013-11-07 20:38:00,49.5,26.2,29.65,West,261,4.0,4.0,40,0.00,,---,0.35,VWS V14.01,2013-11-08 04:38:00,
2013-11-07 20:43:00,49.5,26.8,29.65,WSW,249,5.8,5.8,41,0.00,,---,0.35,VWS V14.01,2013-11-08 04:43:00,
2013-11-07 20:48:00,49.6,26.3,29.65,West,268,6.3,6.3,40,0.00,,---,0.35,VWS V14.01,2013-11-08 04:48:00,
2013-11-07 20:53:00,49.6,26.3,29.65,WSW,254,5.4,5.4,40,0.00,,---,0.35,VWS V14.01,2013-11-08 04:53:00,
2013-11-07 20:58:00,49.5,26.2,29.65,WSW,239,7.6,7.6,40,0.00,,---,0.35,VWS V14.01,2013-11-08 04:58:00,
2013-11-07 21:01:00,49.6,26.3,29.65,SW,235,8.1,8.1,40,0.00,,---,0.35,VWS V14.01,2013-11-08 05:01:00,
2013-11-07 21:06:00,49.6,26.3,29.65,WNW,283,4.0,8.1,40,0.00,,---,0.35,VWS V14.01,2013-11-08 05:06:00,
2013-11-07 21:11:00,49.6,26.3,29.71,WSW,250,6.3,6.3,40,0.00,,---,0.35,VWS V14.01,2013-11-08 05:11:00,
2013-11-07 21:16:00,49.6,26.3,29.71,SW,233,5.8,5.8,40,0.00,,---,0.35,VWS V14.01,2013-11-08 05:16:00,
2013-11-07 21:21:00,49.6,26.3,29.71,West,279,5.8,5.8,40,0.00,,---,0.35,VWS V14.01,2013-11-08 05:21:00,
2013-11-07 21:26:00,49.6,26.3,29.71,West,274,3.6,5.4,40,0.00,,---,0.35,VWS V14.01,2013-11-08 05:26:00,
2013-11-07 21:31:00,49.6,26.3,29.71,West,275,3.6,3.6,40,0.00,,---,0.35,VWS V14.01,2013-11-08 05:31:00,
2013-11-07 21:36:00,49.8,26.5,29.71,West,281,4.0,4.0,40,0.00,,---,0.35,VWS V14.01,2013-11-08 05:36:00,
2013-11-07 21:41:00,49.8,26.5,29.71,West,281,4.0,4.0,40,0.00,,---,0.35,VWS V14.01,2013-11-08 05:41:00,
2013-11-07 21:46:00,49.8,26.5,29.71,West,273,5.4,5.4,40,0.00,,---,0.35,VWS V14.01,2013-11-08 05:46:00,
2013-11-07 21:51:00,49.8,26.5,29.71,West,271,6.3,6.3,40,0.00,,---,0.35,VWS V14.01,2013-11-08 05:51:00,
2013-11-07 21:56:00,49.8,26.5,29.71,West,279,6.3,6.3,40,0.00,,---,0.35,VWS V14.01,2013-11-08 05:56:00,
2013-11-07 22:01:00,49.8,26.5,29.71,WNW,282,5.4,5.4,40,0.00,,---,0.35,VWS V14.01,2013-11-08 06:01:00,
2013-11-07 22:06:00,49.6,26.3,29.71,West,276,5.4,5.4,40,0.00,,---,0.35,VWS V14.01,2013-11-08 06:06:00,
2013-11-07 22:11:00,49.6,26.9,29.71,West,276,5.4,5.4,41,0.00,,---,0.35,VWS V14.01,2013-11-08 06:11:00,
2013-11-07 22:16:00,49.6,26.9,29.71,WNW,290,5.8,5.8,41,0.00,,---,0.35,VWS V14.01,2013-11-08 06:16:00,
2013-11-07 22:21:00,49.6,26.9,29.71,West,274,5.4,5.4,41,0.00,,---,0.35,VWS V14.01,2013-11-08 06:21:00,
2013-11-07 22:26:00,49.6,26.9,29.71,WNW,297,8.1,8.7,41,0.00,,---,0.35,VWS V14.01,2013-11-08 06:26:00,
2013-11-07 22:31:00,49.6,26.9,29.71,WNW,295,8.7,8.7,41,0.00,,---,0.35,VWS V14.01,2013-11-08 06:31:00,
2013-11-07 22:36:00,49.6,26.3,29.71,WNW,295,8.7,8.7,40,0.00,,---,0.35,VWS V14.01,2013-11-08 06:36:00,
2013-11-07 22:41:00,49.6,26.3,29.71,WNW,289,5.8,8.1,40,0.00,,---,0.35,VWS V14.01,2013-11-08 06:41:00,
2013-11-07 22:46:00,49.6,26.3,29.71,WNW,294,5.4,5.8,40,0.00,,---,0.35,VWS V14.01,2013-11-08 06:46:00,
2013-11-07 22:51:00,49.6,26.3,29.71,WNW,288,6.3,6.3,40,0.00,,---,0.35,VWS V14.01,2013-11-08 06:51:00,
2013-11-07 22:56:00,49.5,26.2,29.71,West,271,6.3,6.3,40,0.00,,---,0.35,VWS V14.01,2013-11-08 06:56:00,
2013-11-07 23:01:00,49.5,26.2,29.71,WNW,289,5.8,5.8,40,0.00,,---,0.35,VWS V14.01,2013-11-08 07:01:00,
2013-11-07 23:06:00,49.6,26.9,29.71,WNW,289,4.9,4.9,41,0.00,,---,0.35,VWS V14.01,2013-11-08 07:06:00,
2013-11-07 23:11:00,49.5,26.8,29.71,WNW,286,3.1,3.1,41,0.00,,---,0.00,VWS V14.01,2013-11-08 07:11:00,
2013-11-07 23:16:00,49.5,26.8,29.71,WNW,289,5.4,8.1,41,0.00,,---,0.35,VWS V14.01,2013-11-08 07:16:00,
2013-11-07 23:21:00,49.5,26.8,29.71,West,278,7.2,7.2,41,0.00,,---,0.35,VWS V14.01,2013-11-08 07:21:00,
2013-11-07 23:26:00,49.5,26.8,29.71,WSW,248,4.5,4.5,41,0.00,,---,0.35,VWS V14.01,2013-11-08 07:26:00,
2013-11-07 23:31:00,49.5,26.2,29.71,WNW,286,4.0,4.0,40,0.00,,---,0.35,VWS V14.01,2013-11-08 07:31:00,
2013-11-07 23:36:00,49.5,26.8,29.74,WNW,283,4.9,4.9,41,0.00,,---,0.35,VWS V14.01,2013-11-08 07:36:00,
2013-11-07 23:42:00,49.5,26.8,29.74,West,277,0.0,4.9,41,0.00,,---,0.35,VWS V14.01,2013-11-08 07:42:00,
2013-11-07 23:47:00,49.5,26.2,29.74,West,277,0.0,0.0,40,0.00,,---,0.35,VWS V14.01,2013-11-08 07:47:00,
2013-11-07 23:52:00,49.6,26.9,29.74,West,277,0.0,0.0,41,0.00,,---,0.35,VWS V14.01,2013-11-08 07:52:00,
2013-11-07 23:57:00,50.0,26.6,29.74,West,277,0.0,0.0,40,0.00,,---,0.35,VWS V14.01,2013-11-08 07:57:00,